sensor_id;sensor_type;location;lat;lon;timestamp;temperature;humidity
20858;DHT22;10589;53.636;10.012;2022-10-31T04:46:15;11.40;99.90
20858;DHT22;10589;53.636;10.012;2022-10-31T04:48:40;11.50;99.90
20858;DHT22;10589;53.636;10.012;2022-10-31T04:51:06;11.60;99.90
20858;DHT22;10589;53.636;10.012;2022-10-31T04:53:31;11.70;99.90
20858;DHT22;10589;53.636;10.012;2022-10-31T04:56:00;11.80;99.90
20858;DHT22;10589;53.636;10.012;2022-10-31T04:58:26;11.90;99.90
20858;DHT22;10589;53.636;10.012;2022-10-31T05:00:53;12.00;99.90
20858;DHT22;10589;53.636;10.012;2022-10-31T05:03:18;12.10;99.90
20858;DHT22;10589;53.636;10.012;2022-10-31T05:05:44;12.10;99.90
20858;DHT22;10589;53.636;10.012;2022-10-31T05:08:10;12.20;99.90
20858;DHT22;10589;53.636;10.012;2022-10-31T05:10:35;12.20;99.90
20858;DHT22;10589;53.636;10.012;2022-10-31T05:13:02;12.20;99.90
20858;DHT22;10589;53.636;10.012;2022-10-31T05:15:28;12.40;99.90
20858;DHT22;10589;53.636;10.012;2022-10-31T05:17:55;12.40;99.90
20858;DHT22;10589;53.636;10.012;2022-10-31T05:20:27;12.40;99.90
20858;DHT22;10589;53.636;10.012;2022-10-31T05:22:54;12.50;99.90
20858;DHT22;10589;53.636;10.012;2022-10-31T05:25:22;12.50;99.90
20858;DHT22;10589;53.636;10.012;2022-10-31T05:27:50;12.50;99.90
20858;DHT22;10589;53.636;10.012;2022-10-31T05:30:27;12.50;99.90
20858;DHT22;10589;53.636;10.012;2022-10-31T05:32:53;12.50;99.90
20858;DHT22;10589;53.636;10.012;2022-10-31T05:35:28;12.50;99.90
20858;DHT22;10589;53.636;10.012;2022-10-31T05:37:55;12.50;99.90
20858;DHT22;10589;53.636;10.012;2022-10-31T05:40:22;12.40;99.90
20858;DHT22;10589;53.636;10.012;2022-10-31T05:42:51;12.40;99.90
20858;DHT22;10589;53.636;10.012;2022-10-31T05:45:17;12.50;99.90
20858;DHT22;10589;53.636;10.012;2022-10-31T05:47:54;12.60;99.90
20858;DHT22;10589;53.636;10.012;2022-10-31T05:50:20;12.50;99.90
20858;DHT22;10589;53.636;10.012;2022-10-31T05:52:46;12.50;99.90
20858;DHT22;10589;53.636;10.012;2022-10-31T05:55:12;12.50;99.90
20858;DHT22;10589;53.636;10.012;2022-10-31T05:57:37;12.40;99.90
20858;DHT22;10589;53.636;10.012;2022-10-31T06:00:05;12.40;99.90
20858;DHT22;10589;53.636;10.012;2022-10-31T06:02:30;12.40;99.90
20858;DHT22;10589;53.636;10.012;2022-10-31T06:05:00;12.40;99.90
20858;DHT22;10589;53.636;10.012;2022-10-31T06:07:26;12.40;99.90
20858;DHT22;10589;53.636;10.012;2022-10-31T06:09:51;12.50;99.90
20858;DHT22;10589;53.636;10.012;2022-10-31T06:12:17;12.40;99.90
20858;DHT22;10589;53.636;10.012;2022-10-31T06:14:42;12.40;99.90
20858;DHT22;10589;53.636;10.012;2022-10-31T06:17:08;12.40;99.90
20858;DHT22;10589;53.636;10.012;2022-10-31T06:19:34;12.40;99.90
20858;DHT22;10589;53.636;10.012;2022-10-31T06:21:59;12.40;99.90
20858;DHT22;10589;53.636;10.012;2022-10-31T06:24:25;12.40;99.90
20858;DHT22;10589;53.636;10.012;2022-10-31T06:26:50;12.50;99.90
20858;DHT22;10589;53.636;10.012;2022-10-31T06:29:16;12.60;99.90
20858;DHT22;10589;53.636;10.012;2022-10-31T06:31:41;12.60;99.90
20858;DHT22;10589;53.636;10.012;2022-10-31T06:34:07;12.60;99.90
20858;DHT22;10589;53.636;10.012;2022-10-31T06:36:33;12.50;99.90
20858;DHT22;10589;53.636;10.012;2022-10-31T06:38:59;12.60;99.90
20858;DHT22;10589;53.636;10.012;2022-10-31T06:41:25;12.60;99.90
20858;DHT22;10589;53.636;10.012;2022-10-31T06:43:51;12.70;99.90
20858;DHT22;10589;53.636;10.012;2022-10-31T06:46:16;12.70;99.90
20858;DHT22;10589;53.636;10.012;2022-10-31T06:48:42;12.70;99.90
20858;DHT22;10589;53.636;10.012;2022-10-31T06:51:07;12.70;99.90
20858;DHT22;10589;53.636;10.012;2022-10-31T06:53:33;12.70;99.90
20858;DHT22;10589;53.636;10.012;2022-10-31T06:55:59;12.70;99.90
20858;DHT22;10589;53.636;10.012;2022-10-31T06:58:24;12.70;99.90
20858;DHT22;10589;53.636;10.012;2022-10-31T07:00:50;12.80;99.90
20858;DHT22;10589;53.636;10.012;2022-10-31T07:03:16;12.80;99.90
20858;DHT22;10589;53.636;10.012;2022-10-31T07:05:42;12.80;99.90
20858;DHT22;10589;53.636;10.012;2022-10-31T07:08:11;12.90;99.90
20858;DHT22;10589;53.636;10.012;2022-10-31T07:10:37;12.80;99.90
20858;DHT22;10589;53.636;10.012;2022-10-31T07:13:06;12.90;99.90
20858;DHT22;10589;53.636;10.012;2022-10-31T07:15:36;12.80;99.90
20858;DHT22;10589;53.636;10.012;2022-10-31T07:18:03;12.80;99.90
20858;DHT22;10589;53.636;10.012;2022-10-31T07:20:30;12.80;99.90
20858;DHT22;10589;53.636;10.012;2022-10-31T07:22:56;12.80;99.90
20858;DHT22;10589;53.636;10.012;2022-10-31T07:25:23;12.80;99.90
20858;DHT22;10589;53.636;10.012;2022-10-31T07:27:49;12.80;99.90
20858;DHT22;10589;53.636;10.012;2022-10-31T07:30:14;12.80;99.90
20858;DHT22;10589;53.636;10.012;2022-10-31T07:32:51;12.80;99.90
20858;DHT22;10589;53.636;10.012;2022-10-31T07:35:22;12.80;99.90
20858;DHT22;10589;53.636;10.012;2022-10-31T07:37:48;12.80;99.90
20858;DHT22;10589;53.636;10.012;2022-10-31T07:40:14;12.80;99.90
20858;DHT22;10589;53.636;10.012;2022-10-31T07:42:46;12.80;99.90
20858;DHT22;10589;53.636;10.012;2022-10-31T07:45:14;12.90;99.90
20858;DHT22;10589;53.636;10.012;2022-10-31T07:47:44;12.90;99.90
20858;DHT22;10589;53.636;10.012;2022-10-31T07:50:12;12.90;99.90
20858;DHT22;10589;53.636;10.012;2022-10-31T07:52:37;12.90;99.90
20858;DHT22;10589;53.636;10.012;2022-10-31T07:55:04;13.00;99.90
20858;DHT22;10589;53.636;10.012;2022-10-31T07:57:30;12.90;99.90
20858;DHT22;10589;53.636;10.012;2022-10-31T07:59:55;12.90;99.90
20858;DHT22;10589;53.636;10.012;2022-10-31T08:02:21;13.00;99.90
20858;DHT22;10589;53.636;10.012;2022-10-31T08:04:47;13.10;99.90
20858;DHT22;10589;53.636;10.012;2022-10-31T08:07:12;13.00;99.90
20858;DHT22;10589;53.636;10.012;2022-10-31T08:09:38;13.00;99.90
20858;DHT22;10589;53.636;10.012;2022-10-31T08:12:04;13.00;99.90
20858;DHT22;10589;53.636;10.012;2022-10-31T08:14:30;13.00;99.90
20858;DHT22;10589;53.636;10.012;2022-10-31T08:16:55;13.00;99.90
20858;DHT22;10589;53.636;10.012;2022-10-31T08:19:21;13.10;99.90
20858;DHT22;10589;53.636;10.012;2022-10-31T08:21:50;13.10;99.90
20858;DHT22;10589;53.636;10.012;2022-10-31T08:24:16;13.20;99.90
20858;DHT22;10589;53.636;10.012;2022-10-31T08:26:41;13.30;99.90
20858;DHT22;10589;53.636;10.012;2022-10-31T08:29:07;13.40;99.90
20858;DHT22;10589;53.636;10.012;2022-10-31T08:31:33;13.30;99.90
20858;DHT22;10589;53.636;10.012;2022-10-31T08:33:58;13.30;99.90
20858;DHT22;10589;53.636;10.012;2022-10-31T08:36:24;13.30;99.90
20858;DHT22;10589;53.636;10.012;2022-10-31T08:38:49;13.20;99.90
20858;DHT22;10589;53.636;10.012;2022-10-31T08:41:15;13.10;99.90
20858;DHT22;10589;53.636;10.012;2022-10-31T08:43:41;13.00;99.90
20858;DHT22;10589;53.636;10.012;2022-10-31T08:46:06;13.10;99.90
20858;DHT22;10589;53.636;10.012;2022-10-31T08:48:32;13.20;99.90
20858;DHT22;10589;53.636;10.012;2022-10-31T08:50:59;13.30;99.90
20858;DHT22;10589;53.636;10.012;2022-10-31T08:53:25;13.20;99.90
20858;DHT22;10589;53.636;10.012;2022-10-31T08:55:53;13.40;99.90
20858;DHT22;10589;53.636;10.012;2022-10-31T08:58:19;13.40;99.90
20858;DHT22;10589;53.636;10.012;2022-10-31T09:00:47;13.60;99.90
20858;DHT22;10589;53.636;10.012;2022-10-31T09:03:15;13.50;99.90
20858;DHT22;10589;53.636;10.012;2022-10-31T09:05:41;13.60;99.90
20858;DHT22;10589;53.636;10.012;2022-10-31T09:08:07;13.70;99.90
20858;DHT22;10589;53.636;10.012;2022-10-31T09:10:35;13.90;99.90
20858;DHT22;10589;53.636;10.012;2022-10-31T09:13:03;13.90;99.90
20858;DHT22;10589;53.636;10.012;2022-10-31T09:15:36;14.00;99.90
20858;DHT22;10589;53.636;10.012;2022-10-31T09:18:04;14.00;99.90
20858;DHT22;10589;53.636;10.012;2022-10-31T09:20:30;14.00;99.90
20858;DHT22;10589;53.636;10.012;2022-10-31T09:23:01;13.90;99.90
20858;DHT22;10589;53.636;10.012;2022-10-31T09:25:28;14.00;99.90
20858;DHT22;10589;53.636;10.012;2022-10-31T09:27:58;14.00;99.90
20858;DHT22;10589;53.636;10.012;2022-10-31T09:30:25;14.00;99.90
20858;DHT22;10589;53.636;10.012;2022-10-31T09:33:02;14.00;99.90
20858;DHT22;10589;53.636;10.012;2022-10-31T09:35:28;14.00;99.90
20858;DHT22;10589;53.636;10.012;2022-10-31T09:37:58;14.10;99.90
20858;DHT22;10589;53.636;10.012;2022-10-31T09:46:04;14.50;99.90
20858;DHT22;10589;53.636;10.012;2022-10-31T09:51:28;14.50;99.90
20858;DHT22;10589;53.636;10.012;2022-10-31T09:54:23;14.60;99.90
20858;DHT22;10589;53.636;10.012;2022-10-31T09:56:49;14.30;99.90
20858;DHT22;10589;53.636;10.012;2022-10-31T09:59:25;14.20;99.90
20858;DHT22;10589;53.636;10.012;2022-10-31T10:01:59;14.20;99.90
20858;DHT22;10589;53.636;10.012;2022-10-31T10:04:43;14.30;99.90
20858;DHT22;10589;53.636;10.012;2022-10-31T10:09:53;14.40;99.90
20858;DHT22;10589;53.636;10.012;2022-10-31T10:15:27;14.40;99.90
20858;DHT22;10589;53.636;10.012;2022-10-31T10:21:29;14.30;99.90
20858;DHT22;10589;53.636;10.012;2022-10-31T10:26:40;14.20;99.90
20858;DHT22;10589;53.636;10.012;2022-10-31T10:32:20;14.50;99.90
20858;DHT22;10589;53.636;10.012;2022-10-31T10:34:54;14.50;99.90
20858;DHT22;10589;53.636;10.012;2022-10-31T10:37:32;14.60;99.90
20858;DHT22;10589;53.636;10.012;2022-10-31T10:40:20;14.60;99.90
20858;DHT22;10589;53.636;10.012;2022-10-31T10:42:59;14.60;99.90
20858;DHT22;10589;53.636;10.012;2022-10-31T10:48:54;14.60;99.90
20858;DHT22;10589;53.636;10.012;2022-10-31T10:51:39;14.70;99.90
20858;DHT22;10589;53.636;10.012;2022-10-31T10:59:44;15.00;99.90
20858;DHT22;10589;53.636;10.012;2022-10-31T11:02:26;15.00;99.90
20858;DHT22;10589;53.636;10.012;2022-10-31T11:04:54;15.10;99.90
20858;DHT22;10589;53.636;10.012;2022-10-31T11:07:21;15.10;99.90
20858;DHT22;10589;53.636;10.012;2022-10-31T11:09:47;15.10;99.90
20858;DHT22;10589;53.636;10.012;2022-10-31T11:12:24;15.20;99.90
20858;DHT22;10589;53.636;10.012;2022-10-31T11:14:54;15.20;99.90
20858;DHT22;10589;53.636;10.012;2022-10-31T11:17:34;15.10;99.90
20858;DHT22;10589;53.636;10.012;2022-10-31T11:22:37;15.00;99.90
20858;DHT22;10589;53.636;10.012;2022-10-31T11:25:23;15.10;99.90
20858;DHT22;10589;53.636;10.012;2022-10-31T11:28:04;15.20;99.90
20858;DHT22;10589;53.636;10.012;2022-10-31T11:30:42;15.30;99.90
20858;DHT22;10589;53.636;10.012;2022-10-31T11:33:30;15.40;99.90
20858;DHT22;10589;53.636;10.012;2022-10-31T11:35:57;15.40;99.90
20858;DHT22;10589;53.636;10.012;2022-10-31T11:41:18;15.80;99.90
20858;DHT22;10589;53.636;10.012;2022-10-31T11:43:53;15.90;99.90
20858;DHT22;10589;53.636;10.012;2022-10-31T11:49:15;15.60;99.90
20858;DHT22;10589;53.636;10.012;2022-10-31T11:51:43;15.60;99.90
20858;DHT22;10589;53.636;10.012;2022-10-31T11:54:20;15.50;99.90
20858;DHT22;10589;53.636;10.012;2022-10-31T11:56:47;15.50;99.90
20858;DHT22;10589;53.636;10.012;2022-10-31T11:59:50;15.50;99.90
20858;DHT22;10589;53.636;10.012;2022-10-31T12:02:18;15.50;99.90
20858;DHT22;10589;53.636;10.012;2022-10-31T12:05:00;15.40;99.90
20858;DHT22;10589;53.636;10.012;2022-10-31T12:07:27;15.50;99.90
20858;DHT22;10589;53.636;10.012;2022-10-31T12:09:53;15.90;99.90
20858;DHT22;10589;53.636;10.012;2022-10-31T12:12:45;16.00;99.90
20858;DHT22;10589;53.636;10.012;2022-10-31T12:15:28;15.80;99.90
20858;DHT22;10589;53.636;10.012;2022-10-31T12:21:14;16.00;99.90
20858;DHT22;10589;53.636;10.012;2022-10-31T12:29:51;15.70;99.90
20858;DHT22;10589;53.636;10.012;2022-10-31T12:43:22;16.40;99.90
20858;DHT22;10589;53.636;10.012;2022-10-31T12:45:58;16.60;99.90
20858;DHT22;10589;53.636;10.012;2022-10-31T12:59:30;17.00;99.90
20858;DHT22;10589;53.636;10.012;2022-10-31T13:07:57;16.60;99.90
20858;DHT22;10589;53.636;10.012;2022-10-31T13:13:21;16.40;99.90
20858;DHT22;10589;53.636;10.012;2022-10-31T13:15:57;16.60;99.90
20858;DHT22;10589;53.636;10.012;2022-10-31T13:18:34;16.50;99.90
20858;DHT22;10589;53.636;10.012;2022-10-31T13:21:09;16.40;99.90
20858;DHT22;10589;53.636;10.012;2022-10-31T13:23:37;16.60;99.90
20858;DHT22;10589;53.636;10.012;2022-10-31T13:26:12;16.40;99.90
20858;DHT22;10589;53.636;10.012;2022-10-31T13:28:46;16.30;99.90
20858;DHT22;10589;53.636;10.012;2022-10-31T13:31:12;16.00;99.90
20858;DHT22;10589;53.636;10.012;2022-10-31T13:33:52;15.90;99.90
20858;DHT22;10589;53.636;10.012;2022-10-31T13:39:39;15.80;99.90
20858;DHT22;10589;53.636;10.012;2022-10-31T13:46:56;16.10;99.90
20858;DHT22;10589;53.636;10.012;2022-10-31T13:54:38;16.70;99.90
20858;DHT22;10589;53.636;10.012;2022-10-31T13:59:50;16.20;99.90
20858;DHT22;10589;53.636;10.012;2022-10-31T14:02:22;16.10;99.90
20858;DHT22;10589;53.636;10.012;2022-10-31T14:04:52;15.90;99.90
20858;DHT22;10589;53.636;10.012;2022-10-31T14:07:23;15.90;99.90
20858;DHT22;10589;53.636;10.012;2022-10-31T14:10:03;16.20;99.90
20858;DHT22;10589;53.636;10.012;2022-10-31T14:12:46;16.50;99.90
20858;DHT22;10589;53.636;10.012;2022-10-31T14:15:25;16.60;99.90
20858;DHT22;10589;53.636;10.012;2022-10-31T14:20:33;16.80;99.90
20858;DHT22;10589;53.636;10.012;2022-10-31T14:23:25;16.80;99.90
20858;DHT22;10589;53.636;10.012;2022-10-31T14:28:38;16.60;99.90
20858;DHT22;10589;53.636;10.012;2022-10-31T14:34:39;15.90;99.90
20858;DHT22;10589;53.636;10.012;2022-10-31T14:40:26;15.30;99.90
20858;DHT22;10589;53.636;10.012;2022-10-31T14:43:07;15.20;99.90
20858;DHT22;10589;53.636;10.012;2022-10-31T14:51:01;14.80;99.90
20858;DHT22;10589;53.636;10.012;2022-10-31T14:53:34;14.70;99.90
20858;DHT22;10589;53.636;10.012;2022-10-31T14:56:01;14.60;99.90
20858;DHT22;10589;53.636;10.012;2022-10-31T14:58:38;14.40;99.90
20858;DHT22;10589;53.636;10.012;2022-10-31T15:01:05;14.40;99.90
20858;DHT22;10589;53.636;10.012;2022-10-31T15:03:38;14.40;99.90
20858;DHT22;10589;53.636;10.012;2022-10-31T15:06:11;14.30;99.90
20858;DHT22;10589;53.636;10.012;2022-10-31T15:08:48;14.20;99.90
20858;DHT22;10589;53.636;10.012;2022-10-31T15:11:21;14.20;99.90
20858;DHT22;10589;53.636;10.012;2022-10-31T15:13:56;14.10;99.90
20858;DHT22;10589;53.636;10.012;2022-10-31T15:16:31;14.00;99.90
20858;DHT22;10589;53.636;10.012;2022-10-31T15:19:03;14.00;99.90
20858;DHT22;10589;53.636;10.012;2022-10-31T15:21:30;13.90;99.90
20858;DHT22;10589;53.636;10.012;2022-10-31T15:24:01;13.90;99.90
20858;DHT22;10589;53.636;10.012;2022-10-31T15:26:31;13.80;99.90
20858;DHT22;10589;53.636;10.012;2022-10-31T15:29:03;13.80;99.90
20858;DHT22;10589;53.636;10.012;2022-10-31T15:31:30;13.70;99.90
20858;DHT22;10589;53.636;10.012;2022-10-31T15:34:21;13.70;99.90
20858;DHT22;10589;53.636;10.012;2022-10-31T15:36:48;13.70;99.90
20858;DHT22;10589;53.636;10.012;2022-10-31T15:39:14;13.70;99.90
20858;DHT22;10589;53.636;10.012;2022-10-31T15:41:48;13.60;99.90
20858;DHT22;10589;53.636;10.012;2022-10-31T15:44:21;13.60;99.90
20858;DHT22;10589;53.636;10.012;2022-10-31T15:46:58;13.50;99.90
20858;DHT22;10589;53.636;10.012;2022-10-31T15:51:52;13.40;99.90
20858;DHT22;10589;53.636;10.012;2022-10-31T15:54:18;13.30;99.90
20858;DHT22;10589;53.636;10.012;2022-10-31T15:56:44;13.30;99.90
20858;DHT22;10589;53.636;10.012;2022-10-31T15:59:25;13.30;99.90
20858;DHT22;10589;53.636;10.012;2022-10-31T16:02:00;13.20;99.90
20858;DHT22;10589;53.636;10.012;2022-10-31T16:04:27;13.20;99.90
20858;DHT22;10589;53.636;10.012;2022-10-31T16:07:13;13.10;99.90
20858;DHT22;10589;53.636;10.012;2022-10-31T16:09:53;13.10;99.90
20858;DHT22;10589;53.636;10.012;2022-10-31T16:12:19;13.00;99.90
20858;DHT22;10589;53.636;10.012;2022-10-31T16:14:45;13.00;99.90
20858;DHT22;10589;53.636;10.012;2022-10-31T16:17:17;12.90;99.90
20858;DHT22;10589;53.636;10.012;2022-10-31T16:20:19;12.90;99.90
20858;DHT22;10589;53.636;10.012;2022-10-31T16:22:48;12.80;99.90
20858;DHT22;10589;53.636;10.012;2022-10-31T16:25:19;12.80;99.90
20858;DHT22;10589;53.636;10.012;2022-10-31T16:27:49;12.80;99.90
20858;DHT22;10589;53.636;10.012;2022-10-31T16:30:41;12.70;99.90
20858;DHT22;10589;53.636;10.012;2022-10-31T16:35:53;12.70;99.90
20858;DHT22;10589;53.636;10.012;2022-10-31T16:38:19;12.70;99.90
20858;DHT22;10589;53.636;10.012;2022-10-31T16:40:44;12.70;99.90
20858;DHT22;10589;53.636;10.012;2022-10-31T16:43:12;12.60;99.90
20858;DHT22;10589;53.636;10.012;2022-10-31T16:45:43;12.60;99.90
20858;DHT22;10589;53.636;10.012;2022-10-31T16:48:12;12.60;99.90
20858;DHT22;10589;53.636;10.012;2022-10-31T16:50:41;12.60;99.90
20858;DHT22;10589;53.636;10.012;2022-10-31T16:53:07;12.60;99.90
20858;DHT22;10589;53.636;10.012;2022-10-31T16:55:33;12.60;99.90
20858;DHT22;10589;53.636;10.012;2022-10-31T16:58:01;12.60;99.90
20858;DHT22;10589;53.636;10.012;2022-10-31T17:00:27;12.60;99.90
20858;DHT22;10589;53.636;10.012;2022-10-31T17:02:55;12.60;99.90
20858;DHT22;10589;53.636;10.012;2022-10-31T17:05:24;12.60;99.90
20858;DHT22;10589;53.636;10.012;2022-10-31T17:07:55;12.60;99.90
20858;DHT22;10589;53.636;10.012;2022-10-31T17:10:21;12.60;99.90
20858;DHT22;10589;53.636;10.012;2022-10-31T17:12:48;12.60;99.90
20858;DHT22;10589;53.636;10.012;2022-10-31T17:15:22;12.60;99.90
20858;DHT22;10589;53.636;10.012;2022-10-31T17:17:48;12.60;99.90
20858;DHT22;10589;53.636;10.012;2022-10-31T17:22:45;12.60;99.90
20858;DHT22;10589;53.636;10.012;2022-10-31T17:25:15;12.50;99.90
20858;DHT22;10589;53.636;10.012;2022-10-31T17:27:41;12.60;99.90
20858;DHT22;10589;53.636;10.012;2022-10-31T17:30:08;12.50;99.90
20858;DHT22;10589;53.636;10.012;2022-10-31T17:32:35;12.60;99.90
20858;DHT22;10589;53.636;10.012;2022-10-31T17:35:01;12.60;99.90
20858;DHT22;10589;53.636;10.012;2022-10-31T17:37:26;12.50;99.90
20858;DHT22;10589;53.636;10.012;2022-10-31T17:39:52;12.50;99.90
20858;DHT22;10589;53.636;10.012;2022-10-31T17:42:17;12.50;99.90
20858;DHT22;10589;53.636;10.012;2022-10-31T17:44:43;12.50;99.90
20858;DHT22;10589;53.636;10.012;2022-10-31T17:47:08;12.50;99.90
20858;DHT22;10589;53.636;10.012;2022-10-31T17:49:34;12.50;99.90
20858;DHT22;10589;53.636;10.012;2022-10-31T17:52:00;12.50;99.90
20858;DHT22;10589;53.636;10.012;2022-10-31T17:54:25;12.50;99.90
20858;DHT22;10589;53.636;10.012;2022-10-31T17:56:52;12.40;99.90
20858;DHT22;10589;53.636;10.012;2022-10-31T17:59:18;12.50;99.90
20858;DHT22;10589;53.636;10.012;2022-10-31T18:01:43;12.40;99.90
20858;DHT22;10589;53.636;10.012;2022-10-31T18:04:09;12.40;99.90
20858;DHT22;10589;53.636;10.012;2022-10-31T18:06:35;12.50;99.90
20858;DHT22;10589;53.636;10.012;2022-10-31T18:09:04;12.50;99.90
20858;DHT22;10589;53.636;10.012;2022-10-31T18:11:30;12.50;99.90
20858;DHT22;10589;53.636;10.012;2022-10-31T18:13:57;12.40;99.90
20858;DHT22;10589;53.636;10.012;2022-10-31T18:16:23;12.50;99.90
20858;DHT22;10589;53.636;10.012;2022-10-31T18:18:54;12.50;99.90
20858;DHT22;10589;53.636;10.012;2022-10-31T18:21:21;12.50;99.90
20858;DHT22;10589;53.636;10.012;2022-10-31T18:23:46;12.50;99.90
20858;DHT22;10589;53.636;10.012;2022-10-31T18:26:12;12.50;99.90
20858;DHT22;10589;53.636;10.012;2022-10-31T18:28:38;12.60;99.90
20858;DHT22;10589;53.636;10.012;2022-10-31T18:31:04;12.50;99.90
20858;DHT22;10589;53.636;10.012;2022-10-31T18:33:30;12.60;99.90
20858;DHT22;10589;53.636;10.012;2022-10-31T18:36:01;12.50;99.90
20858;DHT22;10589;53.636;10.012;2022-10-31T18:38:27;12.50;99.90
20858;DHT22;10589;53.636;10.012;2022-10-31T18:40:53;12.60;99.90
20858;DHT22;10589;53.636;10.012;2022-10-31T18:43:18;12.60;99.90
20858;DHT22;10589;53.636;10.012;2022-10-31T18:45:44;12.60;99.90
20858;DHT22;10589;53.636;10.012;2022-10-31T18:48:12;12.60;99.90
20858;DHT22;10589;53.636;10.012;2022-10-31T18:50:38;12.60;99.90
20858;DHT22;10589;53.636;10.012;2022-10-31T18:53:04;12.60;99.90
20858;DHT22;10589;53.636;10.012;2022-10-31T18:55:30;12.60;99.90
20858;DHT22;10589;53.636;10.012;2022-10-31T18:57:55;12.60;99.90
20858;DHT22;10589;53.636;10.012;2022-10-31T19:00:21;12.70;99.90
20858;DHT22;10589;53.636;10.012;2022-10-31T19:02:47;12.70;99.90
20858;DHT22;10589;53.636;10.012;2022-10-31T19:05:12;12.70;99.90
20858;DHT22;10589;53.636;10.012;2022-10-31T19:07:38;12.70;99.90
20858;DHT22;10589;53.636;10.012;2022-10-31T19:10:04;12.70;99.90
20858;DHT22;10589;53.636;10.012;2022-10-31T19:12:31;12.60;99.90
20858;DHT22;10589;53.636;10.012;2022-10-31T19:14:57;12.70;99.90
20858;DHT22;10589;53.636;10.012;2022-10-31T19:17:24;12.60;99.90
20858;DHT22;10589;53.636;10.012;2022-10-31T19:19:49;12.60;99.90
20858;DHT22;10589;53.636;10.012;2022-10-31T19:22:15;12.60;99.90
20858;DHT22;10589;53.636;10.012;2022-10-31T19:24:40;12.60;99.90
20858;DHT22;10589;53.636;10.012;2022-10-31T19:27:08;12.60;99.90
20858;DHT22;10589;53.636;10.012;2022-10-31T19:29:34;12.50;99.90
20858;DHT22;10589;53.636;10.012;2022-10-31T19:31:59;12.50;99.90
20858;DHT22;10589;53.636;10.012;2022-10-31T19:34:25;12.50;99.90
20858;DHT22;10589;53.636;10.012;2022-10-31T19:36:51;12.60;99.90
20858;DHT22;10589;53.636;10.012;2022-10-31T19:39:17;12.50;99.90
20858;DHT22;10589;53.636;10.012;2022-10-31T19:41:43;12.50;99.90
20858;DHT22;10589;53.636;10.012;2022-10-31T19:44:09;12.60;99.90
20858;DHT22;10589;53.636;10.012;2022-10-31T19:46:35;12.60;99.90
20858;DHT22;10589;53.636;10.012;2022-10-31T19:49:00;12.60;99.90
20858;DHT22;10589;53.636;10.012;2022-10-31T19:51:26;12.50;99.90
20858;DHT22;10589;53.636;10.012;2022-10-31T19:53:52;12.50;99.90
20858;DHT22;10589;53.636;10.012;2022-10-31T19:56:21;12.50;99.90
20858;DHT22;10589;53.636;10.012;2022-10-31T19:58:47;12.50;99.90
20858;DHT22;10589;53.636;10.012;2022-10-31T20:01:18;12.50;99.90
20858;DHT22;10589;53.636;10.012;2022-10-31T20:03:44;12.40;99.90
20858;DHT22;10589;53.636;10.012;2022-10-31T20:06:22;12.40;99.90
20858;DHT22;10589;53.636;10.012;2022-10-31T20:08:48;12.40;99.90
20858;DHT22;10589;53.636;10.012;2022-10-31T20:11:14;12.40;99.90
20858;DHT22;10589;53.636;10.012;2022-10-31T20:13:39;12.40;99.90
20858;DHT22;10589;53.636;10.012;2022-10-31T20:16:07;12.40;99.90
20858;DHT22;10589;53.636;10.012;2022-10-31T20:18:33;12.40;99.90
20858;DHT22;10589;53.636;10.012;2022-10-31T20:21:18;12.40;99.90
20858;DHT22;10589;53.636;10.012;2022-10-31T20:23:45;12.30;99.90
20858;DHT22;10589;53.636;10.012;2022-10-31T20:26:14;12.30;99.90
20858;DHT22;10589;53.636;10.012;2022-10-31T20:28:40;12.20;99.90
20858;DHT22;10589;53.636;10.012;2022-10-31T20:31:11;12.20;99.90
20858;DHT22;10589;53.636;10.012;2022-10-31T20:33:37;12.20;99.90
20858;DHT22;10589;53.636;10.012;2022-10-31T20:36:07;12.20;99.90
20858;DHT22;10589;53.636;10.012;2022-10-31T20:38:35;12.10;99.90
20858;DHT22;10589;53.636;10.012;2022-10-31T20:41:03;12.10;99.90
20858;DHT22;10589;53.636;10.012;2022-10-31T20:43:30;12.10;99.90
20858;DHT22;10589;53.636;10.012;2022-10-31T20:46:09;12.10;99.90
20858;DHT22;10589;53.636;10.012;2022-10-31T20:48:35;12.10;99.90
20858;DHT22;10589;53.636;10.012;2022-10-31T20:51:04;12.10;99.90
20858;DHT22;10589;53.636;10.012;2022-10-31T20:53:31;12.20;99.90
20858;DHT22;10589;53.636;10.012;2022-10-31T20:56:17;12.20;99.90
20858;DHT22;10589;53.636;10.012;2022-10-31T20:58:43;12.30;99.90
20858;DHT22;10589;53.636;10.012;2022-10-31T21:01:17;12.30;99.90
20858;DHT22;10589;53.636;10.012;2022-10-31T21:03:44;12.40;99.90
20858;DHT22;10589;53.636;10.012;2022-10-31T21:06:10;12.40;99.90
20858;DHT22;10589;53.636;10.012;2022-10-31T21:08:36;12.40;99.90
20858;DHT22;10589;53.636;10.012;2022-10-31T21:11:09;12.40;99.90
20858;DHT22;10589;53.636;10.012;2022-10-31T21:13:39;12.50;99.90
20858;DHT22;10589;53.636;10.012;2022-10-31T21:16:08;12.50;99.90
20858;DHT22;10589;53.636;10.012;2022-10-31T21:18:38;12.50;99.90
20858;DHT22;10589;53.636;10.012;2022-10-31T21:21:09;12.50;99.90
20858;DHT22;10589;53.636;10.012;2022-10-31T21:23:35;12.60;99.90
20858;DHT22;10589;53.636;10.012;2022-10-31T21:26:13;12.60;99.90
20858;DHT22;10589;53.636;10.012;2022-10-31T21:28:39;12.60;99.90
20858;DHT22;10589;53.636;10.012;2022-10-31T21:31:08;12.60;99.90
20858;DHT22;10589;53.636;10.012;2022-10-31T21:33:34;12.60;99.90
20858;DHT22;10589;53.636;10.012;2022-10-31T21:36:00;12.70;99.90
20858;DHT22;10589;53.636;10.012;2022-10-31T21:38:26;12.70;99.90
20858;DHT22;10589;53.636;10.012;2022-10-31T21:41:03;12.70;99.90
20858;DHT22;10589;53.636;10.012;2022-10-31T21:43:29;12.70;99.90
20858;DHT22;10589;53.636;10.012;2022-10-31T21:46:00;12.70;99.90
20858;DHT22;10589;53.636;10.012;2022-10-31T21:48:26;12.70;99.90
20858;DHT22;10589;53.636;10.012;2022-10-31T21:50:53;12.70;99.90
20858;DHT22;10589;53.636;10.012;2022-10-31T21:53:19;12.70;99.90
20858;DHT22;10589;53.636;10.012;2022-10-31T21:56:03;12.70;99.90
20858;DHT22;10589;53.636;10.012;2022-10-31T21:58:29;12.70;99.90
20858;DHT22;10589;53.636;10.012;2022-10-31T22:01:00;12.70;99.90
20858;DHT22;10589;53.636;10.012;2022-10-31T22:03:26;12.70;99.90
20858;DHT22;10589;53.636;10.012;2022-10-31T22:05:51;12.70;99.90
20858;DHT22;10589;53.636;10.012;2022-10-31T22:08:17;12.70;99.90
20858;DHT22;10589;53.636;10.012;2022-10-31T22:10:42;12.70;99.90
20858;DHT22;10589;53.636;10.012;2022-10-31T22:13:08;12.70;99.90
20858;DHT22;10589;53.636;10.012;2022-10-31T22:15:33;12.80;99.90